createdAt,value
2023-02-05T00:00:00.580Z,98624.63
2023-02-05T00:01:02.473Z,98621.94
2023-02-05T00:02:04.668Z,98628.72
2023-02-05T00:03:06.652Z,98632.97
2023-02-05T00:04:08.616Z,98639.00
2023-02-05T00:05:10.601Z,98628.72
2023-02-05T00:06:12.576Z,98620.28
2023-02-05T00:07:14.390Z,98626.38
2023-02-05T00:08:16.260Z,98627.09
2023-02-05T00:09:18.176Z,98626.28
2023-02-05T00:10:20.027Z,98624.44
2023-02-05T00:11:21.888Z,98630.19
2023-02-05T00:12:23.702Z,98630.09
2023-02-05T00:13:25.561Z,98628.31
2023-02-05T00:14:27.422Z,98622.28
2023-02-05T00:15:29.780Z,98627.72
2023-02-05T00:16:31.779Z,98618.44
2023-02-05T00:17:34.959Z,98621.94
2023-02-05T00:18:37.811Z,98634.72
2023-02-05T00:19:39.644Z,98626.38
2023-02-05T00:20:41.588Z,98627.19
2023-02-05T00:21:44.717Z,98629.75
2023-02-05T00:22:46.584Z,98639.31
2023-02-05T00:23:48.606Z,98628.22
2023-02-05T00:24:50.502Z,98634.19
2023-02-05T00:25:52.459Z,98628.13
2023-02-05T00:26:54.417Z,98626.47
2023-02-05T00:27:56.414Z,98635.84
2023-02-05T00:28:58.309Z,98630.56
2023-02-05T00:30:00.171Z,98631.22
2023-02-05T00:31:07.295Z,98628.00
2023-02-05T00:32:09.219Z,98623.59
2023-02-05T00:33:10.997Z,98625.25
2023-02-05T00:34:12.977Z,98622.88
2023-02-05T00:35:14.788Z,98627.50
2023-02-05T00:36:17.100Z,98626.56
2023-02-05T00:37:18.991Z,98612.88
2023-02-05T00:38:20.884Z,98627.50
2023-02-05T00:39:22.779Z,98623.38
2023-02-05T00:40:24.602Z,98630.47
2023-02-05T00:41:26.414Z,98622.53
2023-02-05T00:42:28.280Z,98617.94
2023-02-05T00:43:30.174Z,98621.22
2023-02-05T00:44:32.156Z,98621.94
2023-02-05T00:45:36.207Z,98621.22
2023-02-05T00:46:38.507Z,98620.50
2023-02-05T00:47:40.295Z,98628.22
2023-02-05T00:48:42.575Z,98629.97
2023-02-05T00:49:44.476Z,98622.13
2023-02-05T00:50:47.853Z,98632.63
2023-02-05T00:51:49.670Z,98641.25
2023-02-05T00:52:51.476Z,98634.38
2023-02-05T00:53:53.358Z,98630.88
2023-02-05T00:54:55.392Z,98637.06
2023-02-05T00:55:57.212Z,98626.88
2023-02-05T00:56:59.537Z,98624.38
2023-02-05T00:58:01.548Z,98624.59
2023-02-05T00:59:03.596Z,98623.66
2023-02-05T01:00:07.565Z,98627.81
2023-02-05T01:01:09.652Z,98631.19
2023-02-05T01:02:11.622Z,98629.66
2023-02-05T01:03:13.986Z,98628.72
2023-02-05T01:04:15.782Z,98627.16
2023-02-05T01:05:17.800Z,98632.50
2023-02-05T01:06:19.685Z,98626.63
2023-02-05T01:07:21.695Z,98633.44
2023-02-05T01:08:23.976Z,98632.63
2023-02-05T01:09:25.891Z,98627.34
2023-02-05T01:10:27.796Z,98636.00
2023-02-05T01:11:29.697Z,98633.44
2023-02-05T01:12:33.512Z,98638.75
2023-02-05T01:13:35.422Z,98633.59
2023-02-05T01:14:37.249Z,98634.56
2023-02-05T01:15:39.240Z,98629.31
2023-02-05T01:16:41.062Z,98628.56
2023-02-05T01:17:43.081Z,98629.59
2023-02-05T01:18:44.917Z,98633.81
2023-02-05T01:19:47.065Z,98633.69
2023-02-05T01:20:48.991Z,98631.78
2023-02-05T01:21:50.829Z,98634.25
2023-02-05T01:22:52.635Z,98634.34
2023-02-05T01:23:55.175Z,98633.44
2023-02-05T01:24:57.082Z,98638.47
2023-02-05T01:25:59.021Z,98632.41
2023-02-05T01:27:00.888Z,98625.50
2023-02-05T01:28:02.774Z,98628.91
2023-02-05T01:29:04.682Z,98627.91
2023-02-05T01:30:06.961Z,98625.63
2023-02-05T01:31:10.296Z,98627.16
2023-02-05T01:32:12.252Z,98627.69
2023-02-05T01:33:14.084Z,98633.13
2023-02-05T01:34:15.898Z,98633.22
2023-02-05T01:35:17.818Z,98629.75
2023-02-05T01:36:19.811Z,98633.22
2023-02-05T01:37:21.959Z,98632.63
2023-02-05T01:38:23.780Z,98627.34
2023-02-05T01:39:25.594Z,98629.75
2023-02-05T01:40:27.480Z,98632.31
2023-02-05T01:41:29.491Z,98636.72
2023-02-05T01:42:32.200Z,98634.25
2023-02-05T01:43:34.080Z,98627.47
2023-02-05T01:44:36.920Z,98625.81
2023-02-05T01:45:41.623Z,98618.19
2023-02-05T01:46:44.132Z,98616.66
2023-02-05T01:47:46.031Z,98620.75
2023-02-05T01:48:50.118Z,98616.56
2023-02-05T01:49:52.657Z,98614.91
2023-02-05T01:50:57.566Z,98612.97
2023-02-05T01:52:02.702Z,98605.97
2023-02-05T01:53:06.505Z,98602.38
2023-02-05T01:54:08.858Z,98602.19
2023-02-05T01:55:10.645Z,98601.47
2023-02-05T01:56:19.152Z,98603.81
2023-02-05T01:57:22.573Z,98610.09
2023-02-05T01:58:26.368Z,98611.84
2023-02-05T01:59:29.160Z,98613.69
2023-02-05T02:00:30.955Z,98609.47
2023-02-05T02:01:32.916Z,98612.06
2023-02-05T02:02:38.218Z,98607.72
2023-02-05T02:03:40.987Z,98604.44
2023-02-05T02:04:44.947Z,98611.22
2023-02-05T02:05:46.765Z,98607.50
2023-02-05T02:06:48.653Z,98608.34
2023-02-05T02:07:50.565Z,98603.31
2023-02-05T02:08:52.694Z,98609.19
2023-02-05T02:09:55.646Z,98606.69
2023-02-05T02:10:58.613Z,98607.72
2023-02-05T02:12:00.611Z,98608.63
2023-02-05T02:13:03.152Z,98610.47
2023-02-05T02:14:07.231Z,98615.63
2023-02-05T02:15:11.070Z,98619.94
2023-02-05T02:16:13.036Z,98618.19
2023-02-05T02:17:16.950Z,98616.47
2023-02-05T02:18:29.449Z,98619.03
2023-02-05T02:19:31.198Z,98620.03
2023-02-05T02:20:37.522Z,98623.72
2023-02-05T02:21:45.448Z,98618.59
2023-02-05T02:22:56.377Z,98623.53
2023-02-05T02:24:07.356Z,98626.63
2023-02-05T02:25:24.786Z,98625.91
2023-02-05T02:26:33.705Z,98614.91
2023-02-05T02:27:46.179Z,98617.28
2023-02-05T02:28:52.748Z,98612.88
2023-02-05T02:29:57.885Z,98625.19
2023-02-05T02:31:04.519Z,98627.75
2023-02-05T02:32:12.161Z,98628.47
2023-02-05T02:33:17.779Z,98624.78
2023-02-05T02:34:23.705Z,98636.09
2023-02-05T02:35:28.876Z,98624.78
2023-02-05T02:36:34.453Z,98626.34
2023-02-05T02:37:54.620Z,98634.06
2023-02-05T02:39:14.804Z,98629.91
2023-02-05T02:40:21.180Z,98620.66
2023-02-05T02:41:31.839Z,98628.38
2023-02-05T02:42:41.469Z,98631.97
2023-02-05T02:43:46.358Z,98639.16
2023-02-05T02:44:54.702Z,98633.38
2023-02-05T02:46:01.160Z,98637.38
2023-02-05T02:47:21.007Z,98641.72
2023-02-05T02:48:24.202Z,98638.31
2023-02-05T02:49:40.816Z,98628.22
2023-02-05T02:50:44.999Z,98628.44
2023-02-05T02:51:48.831Z,98635.22
2023-02-05T02:52:52.140Z,98634.41
2023-02-05T02:53:56.402Z,98639.53
2023-02-05T02:55:00.941Z,98638.72
2023-02-05T02:56:04.718Z,98637.06
2023-02-05T02:57:08.333Z,98632.63
2023-02-05T02:58:16.966Z,98632.47
2023-02-05T02:59:21.461Z,98629.97
2023-02-05T03:00:25.734Z,98625.66
2023-02-05T03:01:29.974Z,98632.56
2023-02-05T03:02:33.560Z,98630.81
2023-02-05T03:03:37.579Z,98630.72
2023-02-05T03:04:45.991Z,98639.34
2023-02-05T03:05:49.082Z,98636.56
2023-02-05T03:06:54.114Z,98635.66
2023-02-05T03:08:05.905Z,98639.97
2023-02-05T03:09:12.291Z,98623.72
2023-02-05T03:10:17.506Z,98635.94
2023-02-05T03:11:19.387Z,98633.56
2023-02-05T03:12:21.300Z,98631.81
2023-02-05T03:13:23.195Z,98630.06
2023-02-05T03:14:25.126Z,98635.94
2023-02-05T03:15:26.953Z,98631.00
2023-02-05T03:16:28.953Z,98632.84
2023-02-05T03:17:30.967Z,98633.50
2023-02-05T03:18:33.123Z,98640.34
2023-02-05T03:19:35.087Z,98634.22
2023-02-05T03:20:42.381Z,98628.78
2023-02-05T03:21:47.197Z,98626.75
2023-02-05T03:22:49.164Z,98623.16
2023-02-05T03:23:51.302Z,98627.34
2023-02-05T03:24:54.047Z,98627.47
2023-02-05T03:25:55.870Z,98630.41
2023-02-05T03:26:57.927Z,98627.75
2023-02-05T03:27:59.824Z,98628.56
2023-02-05T03:29:04.181Z,98629.59
2023-02-05T03:30:07.484Z,98629.50
2023-02-05T03:31:20.556Z,98624.06
2023-02-05T03:32:22.329Z,98622.94
2023-02-05T03:33:33.346Z,98621.81
2023-02-05T03:34:53.633Z,98623.47
2023-02-05T03:36:17.539Z,98629.53
2023-02-05T03:37:34.192Z,98620.50
2023-02-05T03:38:39.016Z,98617.28
2023-02-05T03:39:46.976Z,98623.34
2023-02-05T03:41:07.264Z,98609.66
2023-02-05T03:42:28.306Z,98613.44
2023-02-05T03:43:30.695Z,98613.13
2023-02-05T03:44:40.400Z,98602.78
2023-02-05T03:45:50.336Z,98606.06
2023-02-05T03:47:00.850Z,98606.91
2023-02-05T03:48:05.532Z,98596.63
2023-02-05T03:49:10.500Z,98601.13
2023-02-05T03:50:19.127Z,98603.63
2023-02-05T03:51:29.537Z,98607.91
2023-02-05T03:52:35.952Z,98602.97
2023-02-05T03:53:40.289Z,98599.56
2023-02-05T03:55:00.563Z,98596.19
2023-02-05T03:56:06.077Z,98605.00
2023-02-05T03:57:17.907Z,98601.72
2023-02-05T03:58:38.085Z,98603.25
2023-02-05T03:59:40.781Z,98608.31
2023-02-05T04:00:43.534Z,98602.13
2023-02-05T04:01:46.355Z,98594.44
2023-02-05T04:02:48.200Z,98603.97
2023-02-05T04:03:50.137Z,98607.19
2023-02-05T04:04:51.973Z,98612.31
2023-02-05T04:05:54.942Z,98612.72
2023-02-05T04:06:56.986Z,98601.81
2023-02-05T04:07:58.797Z,98606.13
2023-02-05T04:09:00.675Z,98606.84
2023-02-05T04:10:02.575Z,98600.09
2023-02-05T04:11:04.483Z,98610.97
2023-02-05T04:12:06.580Z,98610.97
2023-02-05T04:13:08.383Z,98609.25
2023-02-05T04:14:10.339Z,98610.97
2023-02-05T04:15:12.221Z,98605.00
2023-02-05T04:16:14.273Z,98600.59
2023-02-05T04:17:16.168Z,98595.47
2023-02-05T04:18:18.152Z,98592.72
2023-02-05T04:19:20.102Z,98591.78
2023-02-05T04:20:21.923Z,98588.28
2023-02-05T04:21:23.767Z,98585.00
2023-02-05T04:22:25.635Z,98588.28
2023-02-05T04:23:27.684Z,98591.69
2023-02-05T04:24:29.580Z,98593.53
2023-02-05T04:25:31.629Z,98590.78
2023-02-05T04:26:33.523Z,98586.44
2023-02-05T04:27:35.360Z,98583.97
2023-02-05T04:28:37.327Z,98587.25
2023-02-05T04:29:39.202Z,98578.53
2023-02-05T04:30:41.092Z,98585.31
2023-02-05T04:31:43.016Z,98576.66
2023-02-05T04:32:44.825Z,98582.53
2023-02-05T04:33:46.888Z,98585.94
2023-02-05T04:34:48.789Z,98588.19
2023-02-05T04:35:50.636Z,98587.56
2023-02-05T04:36:52.564Z,98583.34
2023-02-05T04:37:54.502Z,98586.84
2023-02-05T04:38:56.351Z,98587.56
2023-02-05T04:39:58.286Z,98590.94
2023-02-05T04:41:00.151Z,98589.19
2023-02-05T04:42:02.253Z,98592.78
2023-02-05T04:43:04.108Z,98593.72
2023-02-05T04:44:07.079Z,98597.00
2023-02-05T04:45:10.352Z,98605.44
2023-02-05T04:46:12.685Z,98599.69
2023-02-05T04:47:14.848Z,98601.41
2023-02-05T04:48:17.389Z,98598.75
2023-02-05T04:49:19.286Z,98596.00
2023-02-05T04:50:21.273Z,98597.63
2023-02-05T04:51:23.140Z,98601.13
2023-02-05T04:52:25.102Z,98605.66
2023-02-05T04:53:26.968Z,98602.25
2023-02-05T04:54:29.041Z,98607.09
2023-02-05T04:55:31.431Z,98600.94
2023-02-05T04:56:33.765Z,98602.59
2023-02-05T04:57:35.632Z,98607.00
2023-02-05T04:58:37.458Z,98603.97
2023-02-05T04:59:39.389Z,98607.28
2023-02-05T05:00:41.299Z,98603.81
2023-02-05T05:01:43.166Z,98611.41
2023-02-05T05:02:45.082Z,98609.03
2023-02-05T05:03:47.437Z,98602.25
2023-02-05T05:04:49.241Z,98609.13
2023-02-05T05:05:51.182Z,98611.91
2023-02-05T05:06:53.083Z,98613.66
2023-02-05T05:07:55.128Z,98612.81
2023-02-05T05:08:56.978Z,98612.81
2023-02-05T05:09:58.874Z,98620.34
2023-02-05T05:11:01.193Z,98617.69
2023-02-05T05:12:03.247Z,98617.13
2023-02-05T05:13:05.166Z,98616.22
2023-02-05T05:14:07.068Z,98617.84
2023-02-05T05:15:09.106Z,98613.53
2023-02-05T05:16:11.346Z,98618.78
2023-02-05T05:17:14.986Z,98620.00
2023-02-05T05:18:16.882Z,98625.31
2023-02-05T05:19:18.685Z,98622.03
2023-02-05T05:20:20.569Z,98627.81
2023-02-05T05:21:22.480Z,98625.88
2023-02-05T05:22:24.304Z,98624.13
2023-02-05T05:23:26.231Z,98620.09
2023-02-05T05:24:28.180Z,98618.47
2023-02-05T05:25:30.016Z,98620.81
2023-02-05T05:26:31.903Z,98621.03
2023-02-05T05:27:33.750Z,98629.47
2023-02-05T05:28:36.148Z,98624.41
2023-02-05T05:29:37.997Z,98622.66
2023-02-05T05:30:40.507Z,98617.75
2023-02-05T05:31:42.901Z,98623.16
2023-02-05T05:32:44.789Z,98624.38
2023-02-05T05:33:46.749Z,98620.88
2023-02-05T05:34:48.563Z,98623.44
2023-02-05T05:35:50.482Z,98631.06
2023-02-05T05:36:53.863Z,98624.09
2023-02-05T05:37:57.055Z,98627.56
2023-02-05T05:39:18.942Z,98623.44
2023-02-05T05:40:39.307Z,98624.00
2023-02-05T05:41:59.571Z,98623.59
2023-02-05T05:43:19.642Z,98623.69
2023-02-05T05:44:21.468Z,98628.00
2023-02-05T05:45:23.510Z,98618.66
2023-02-05T05:46:26.609Z,98624.72
2023-02-05T05:47:28.547Z,98621.31
2023-02-05T05:48:30.862Z,98617.81
2023-02-05T05:49:32.666Z,98625.44
2023-02-05T05:50:34.490Z,98627.06
2023-02-05T05:51:36.414Z,98628.63
2023-02-05T05:52:38.253Z,98625.97
2023-02-05T05:53:40.109Z,98626.78
2023-02-05T05:54:42.164Z,98626.78
2023-02-05T05:55:44.127Z,98633.56
2023-02-05T05:56:46.014Z,98627.63
2023-02-05T05:57:47.962Z,98621.84
2023-02-05T05:58:50.352Z,98623.47
2023-02-05T05:59:52.178Z,98625.31
2023-02-05T06:00:54.906Z,98624.41
2023-02-05T06:01:57.247Z,98623.47
2023-02-05T06:02:59.178Z,98620.41
2023-02-05T06:04:03.657Z,98623.16
2023-02-05T06:05:06.025Z,98629.13
2023-02-05T06:06:08.839Z,98625.63
2023-02-05T06:07:10.676Z,98620.31
2023-02-05T06:08:13.274Z,98626.16
2023-02-05T06:09:15.176Z,98630.47
2023-02-05T06:10:17.128Z,98628.75
2023-02-05T06:11:19.005Z,98631.50
2023-02-05T06:12:20.900Z,98629.84
2023-02-05T06:13:22.855Z,98629.66
2023-02-05T06:14:24.806Z,98629.47
2023-02-05T06:15:29.742Z,98626.78
2023-02-05T06:16:31.652Z,98633.38
2023-02-05T06:17:33.571Z,98628.34
2023-02-05T06:18:35.397Z,98624.94
2023-02-05T06:19:37.232Z,98626.69
2023-02-05T06:20:39.016Z,98627.81
2023-02-05T06:21:40.874Z,98627.91
2023-02-05T06:22:42.782Z,98621.94
2023-02-05T06:23:44.780Z,98623.47
2023-02-05T06:24:46.726Z,98621.75
2023-02-05T06:25:51.778Z,98625.16
2023-02-05T06:26:53.672Z,98629.47
2023-02-05T06:27:55.505Z,98627.81
2023-02-05T06:28:57.574Z,98620.31
2023-02-05T06:29:59.514Z,98629.00
2023-02-05T06:31:01.489Z,98628.19
2023-02-05T06:32:03.401Z,98631.69
2023-02-05T06:33:05.743Z,98622.31
2023-02-05T06:34:07.616Z,98624.81
2023-02-05T06:35:10.081Z,98626.44
2023-02-05T06:36:11.936Z,98636.72
2023-02-05T06:37:14.035Z,98630.84
2023-02-05T06:38:15.855Z,98637.94
2023-02-05T06:39:17.749Z,98634.66
2023-02-05T06:40:22.598Z,98633.72
2023-02-05T06:41:24.429Z,98634.66
2023-02-05T06:42:26.340Z,98632.09
2023-02-05T06:43:28.253Z,98638.84
2023-02-05T06:44:30.144Z,98648.09
2023-02-05T06:45:32.696Z,98637.75
2023-02-05T06:46:34.778Z,98642.69
2023-02-05T06:47:36.581Z,98641.75
2023-02-05T06:48:38.433Z,98645.78
2023-02-05T06:49:40.344Z,98646.50
2023-02-05T06:50:42.332Z,98646.72
2023-02-05T06:51:44.199Z,98642.59
2023-02-05T06:52:46.042Z,98646.91
2023-02-05T06:53:48.022Z,98649.38
2023-02-05T06:54:49.841Z,98642.50
2023-02-05T06:55:51.767Z,98643.13
2023-02-05T06:56:53.750Z,98643.66
2023-02-05T06:57:55.615Z,98643.56
2023-02-05T06:58:57.464Z,98646.13
2023-02-05T06:59:59.352Z,98653.09
2023-02-05T07:01:02.112Z,98644.59
2023-02-05T07:02:04.029Z,98647.16
2023-02-05T07:03:05.977Z,98637.69
2023-02-05T07:04:07.848Z,98646.13
2023-02-05T07:05:09.853Z,98640.25
2023-02-05T07:06:12.066Z,98644.66
2023-02-05T07:07:16.179Z,98637.91
2023-02-05T07:08:18.075Z,98634.69
2023-02-05T07:09:19.898Z,98641.59
2023-02-05T07:10:21.819Z,98640.66
2023-02-05T07:11:23.805Z,98648.28
2023-02-05T07:12:25.655Z,98644.75
2023-02-05T07:13:28.724Z,98645.63
2023-02-05T07:14:31.769Z,98637.91
2023-02-05T07:15:35.686Z,98646.44
2023-02-05T07:16:37.781Z,98642.59
2023-02-05T07:17:39.713Z,98646.19
2023-02-05T07:18:41.666Z,98646.09
2023-02-05T07:19:43.539Z,98642.59
2023-02-05T07:20:45.361Z,98646.25
2023-02-05T07:21:47.213Z,98643.81
2023-02-05T07:22:49.110Z,98641.97
2023-02-05T07:23:51.049Z,98656.44
2023-02-05T07:24:52.932Z,98646.00
2023-02-05T07:25:54.808Z,98644.97
2023-02-05T07:26:56.702Z,98645.50
2023-02-05T07:27:58.631Z,98648.78
2023-02-05T07:29:01.241Z,98653.75
2023-02-05T07:30:03.144Z,98654.78
2023-02-05T07:31:08.970Z,98657.34
2023-02-05T07:32:11.151Z,98654.94
2023-02-05T07:33:13.102Z,98650.63
2023-02-05T07:34:14.949Z,98649.63
2023-02-05T07:35:16.807Z,98651.09
2023-02-05T07:36:18.936Z,98657.69
2023-02-05T07:37:21.580Z,98658.41
2023-02-05T07:38:25.197Z,98654.91
2023-02-05T07:39:28.446Z,98657.38
2023-02-05T07:40:30.270Z,98663.44
2023-02-05T07:41:32.135Z,98661.78
2023-02-05T07:42:34.031Z,98661.06
2023-02-05T07:43:35.939Z,98667.03
2023-02-05T07:44:37.950Z,98664.44
2023-02-05T07:45:39.867Z,98659.22
2023-02-05T07:46:41.737Z,98662.72
2023-02-05T07:47:43.694Z,98676.66
2023-02-05T07:48:45.552Z,98668.94
2023-02-05T07:49:47.419Z,98661.16
2023-02-05T07:50:49.244Z,98671.44
2023-02-05T07:51:51.079Z,98670.63
2023-02-05T07:52:52.945Z,98664.66
2023-02-05T07:53:54.785Z,98668.88
2023-02-05T07:54:56.644Z,98658.06
2023-02-05T07:56:02.435Z,98665.97
2023-02-05T07:57:06.803Z,98657.34
2023-02-05T07:58:08.884Z,98665.97
2023-02-05T07:59:10.803Z,98663.47
2023-02-05T08:00:12.931Z,98664.19
2023-02-05T08:01:14.854Z,98665.06
2023-02-05T08:02:16.817Z,98663.47
2023-02-05T08:03:18.725Z,98665.31
2023-02-05T08:04:20.556Z,98665.22
2023-02-05T08:05:22.459Z,98667.06
2023-02-05T08:06:24.566Z,98664.59
2023-02-05T08:07:26.456Z,98668.91
2023-02-05T08:08:28.395Z,98671.47
2023-02-05T08:09:30.340Z,98673.22
2023-02-05T08:10:32.859Z,98675.97
2023-02-05T08:11:34.764Z,98674.06
2023-02-05T08:12:36.675Z,98661.75
2023-02-05T08:13:38.522Z,98670.19
2023-02-05T08:14:40.342Z,98666.59
2023-02-05T08:15:42.164Z,98666.50
2023-02-05T08:16:44.163Z,98662.19
2023-02-05T08:17:46.030Z,98658.78
2023-02-05T08:18:49.512Z,98664.94
2023-02-05T08:19:51.490Z,98657.22
2023-02-05T08:20:56.130Z,98664.84
2023-02-05T08:21:58.003Z,98659.53
2023-02-05T08:22:59.896Z,98657.03
2023-02-05T08:24:01.727Z,98662.28
2023-02-05T08:25:04.764Z,98659.41
2023-02-05T08:26:06.627Z,98655.84
2023-02-05T08:27:08.422Z,98649.97
2023-02-05T08:28:10.398Z,98645.56
2023-02-05T08:29:12.859Z,98657.47
2023-02-05T08:30:15.701Z,98653.25
2023-02-05T08:31:19.353Z,98644.09
2023-02-05T08:32:21.150Z,98652.94
2023-02-05T08:33:23.120Z,98648.41
2023-02-05T08:34:24.998Z,98652.44
2023-02-05T08:35:26.899Z,98649.03
2023-02-05T08:36:28.990Z,98653.25
2023-02-05T08:37:30.870Z,98645.72
2023-02-05T08:38:32.878Z,98648.22
2023-02-05T08:39:34.775Z,98647.19
2023-02-05T08:40:36.848Z,98649.66
2023-02-05T08:41:38.702Z,98645.97
2023-02-05T08:42:40.624Z,98647.63
2023-02-05T08:43:43.301Z,98643.09
2023-02-05T08:44:45.594Z,98648.06
2023-02-05T08:45:48.440Z,98647.84
2023-02-05T08:46:50.731Z,98647.84
2023-02-05T08:47:52.679Z,98648.47
2023-02-05T08:48:54.599Z,98645.72
2023-02-05T08:49:56.395Z,98650.66
2023-02-05T08:50:58.294Z,98648.53
2023-02-05T08:52:00.155Z,98646.47
2023-02-05T08:53:02.046Z,98644.91
2023-02-05T08:54:05.863Z,98652.63
2023-02-05T08:55:07.871Z,98642.53
2023-02-05T08:56:11.087Z,98655.13
2023-02-05T08:57:13.047Z,98646.69
2023-02-05T08:58:14.998Z,98649.03
2023-02-05T08:59:17.057Z,98652.88
2023-02-05T09:00:19.881Z,98650.00
2023-02-05T09:01:21.982Z,98657.09
2023-02-05T09:02:26.845Z,98654.13
2023-02-05T09:03:31.055Z,98656.28
2023-02-05T09:04:33.014Z,98643.59
2023-02-05T09:05:35.168Z,98651.22
2023-02-05T09:06:37.458Z,98647.09
2023-02-05T09:07:39.799Z,98650.31
2023-02-05T09:08:41.784Z,98651.66
2023-02-05T09:09:43.662Z,98641.44
2023-02-05T09:10:45.515Z,98638.56
2023-02-05T09:11:47.444Z,98636.41
2023-02-05T09:12:49.401Z,98637.53
2023-02-05T09:13:51.443Z,98636.19
2023-02-05T09:14:53.278Z,98626.25
2023-02-05T09:15:55.147Z,98625.97
2023-02-05T09:16:56.977Z,98630.69
2023-02-05T09:17:58.789Z,98634.91
2023-02-05T09:19:00.733Z,98631.78
2023-02-05T09:20:02.643Z,98635.91
2023-02-05T09:21:06.953Z,98634.03
2023-02-05T09:22:09.250Z,98628.69
2023-02-05T09:23:12.482Z,98632.59
2023-02-05T09:24:14.348Z,98629.03
2023-02-05T09:25:16.166Z,98647.06
2023-02-05T09:26:18.528Z,98643.97
2023-02-05T09:27:20.350Z,98642.81
2023-02-05T09:28:22.201Z,98645.28
2023-02-05T09:29:24.211Z,98641.47
2023-02-05T09:30:26.206Z,98642.34
2023-02-05T09:31:28.187Z,98647.91
2023-02-05T09:32:30.125Z,98644.19
2023-02-05T09:33:32.016Z,98645.13
2023-02-05T09:34:33.962Z,98650.47
2023-02-05T09:35:36.511Z,98642.75
2023-02-05T09:36:39.380Z,98639.03
2023-02-05T09:37:41.193Z,98638.22
2023-02-05T09:38:43.104Z,98637.41
2023-02-05T09:40:19.029Z,98635.13
2023-02-05T09:41:15.776Z,98627.06
2023-02-05T09:42:17.713Z,98632.84
2023-02-05T09:43:28.787Z,98624.88
2023-02-05T09:44:49.435Z,98626.81
2023-02-05T09:46:17.862Z,98624.16
2023-02-05T09:47:38.705Z,98622.81
2023-02-05T09:48:52.397Z,98620.88
2023-02-05T09:50:29.808Z,98620.69
2023-02-05T09:51:35.908Z,98617.00
2023-02-05T09:52:38.629Z,98618.13
2023-02-05T09:53:43.816Z,98611.22
2023-02-05T09:54:49.469Z,98615.94
2023-02-05T09:55:51.552Z,98617.47
2023-02-05T09:56:58.224Z,98606.94
2023-02-05T09:58:14.098Z,98609.41
2023-02-05T09:59:21.753Z,98611.03
2023-02-05T10:00:23.679Z,98603.31
2023-02-05T10:01:40.895Z,98598.97
2023-02-05T10:02:51.445Z,98607.56
2023-02-05T10:03:58.644Z,98604.00
2023-02-05T10:05:00.512Z,98601.50
2023-02-05T10:06:21.673Z,98603.84
2023-02-05T10:07:23.447Z,98606.97
2023-02-05T10:08:39.709Z,98601.09
2023-02-05T10:09:55.161Z,98593.00
2023-02-05T10:10:57.773Z,98600.53
2023-02-05T10:11:59.716Z,98600.78
2023-02-05T10:13:04.348Z,98599.38
2023-02-05T10:14:09.127Z,98586.59
2023-02-05T10:15:27.657Z,98590.66
2023-02-05T10:16:35.757Z,98589.88
2023-02-05T10:17:41.139Z,98592.97
2023-02-05T10:18:56.515Z,98585.50
2023-02-05T10:20:13.088Z,98579.72
2023-02-05T10:21:21.138Z,98590.75
2023-02-05T10:22:23.020Z,98582.66
2023-02-05T10:23:27.802Z,98576.44
2023-02-05T10:24:32.616Z,98576.91
2023-02-05T10:25:39.200Z,98575.16
2023-02-05T10:26:51.994Z,98576.25
2023-02-05T10:27:59.624Z,98572.75
2023-02-05T10:29:01.536Z,98582.63
2023-02-05T10:30:07.391Z,98575.13
2023-02-05T10:31:21.442Z,98571.38
2023-02-05T10:32:24.565Z,98571.41
2023-02-05T10:33:42.086Z,98560.94
2023-02-05T10:34:43.880Z,98558.38
2023-02-05T10:35:45.671Z,98554.88
2023-02-05T10:36:52.413Z,98550.88
2023-02-05T10:37:57.590Z,98547.94
2023-02-05T10:39:00.119Z,98550.53
2023-02-05T10:40:04.102Z,98552.06
2023-02-05T10:41:26.208Z,98552.88
2023-02-05T10:42:41.215Z,98538.69
2023-02-05T10:43:49.651Z,98539.50
2023-02-05T10:44:57.716Z,98547.81
2023-02-05T10:46:00.440Z,98545.25
2023-02-05T10:47:25.446Z,98542.78
2023-02-05T10:48:45.488Z,98542.66
2023-02-05T10:50:16.531Z,98546.88
2023-02-05T10:51:40.215Z,98544.06
2023-02-05T10:52:42.095Z,98541.94
2023-02-05T10:53:44.252Z,98539.72
2023-02-05T10:54:46.376Z,98533.63
2023-02-05T10:55:48.396Z,98529.41
2023-02-05T10:56:50.332Z,98536.41
2023-02-05T10:57:52.166Z,98531.81
2023-02-05T10:58:59.160Z,98521.97
2023-02-05T11:00:13.514Z,98515.03
2023-02-05T11:01:17.215Z,98513.19
2023-02-05T11:02:19.845Z,98513.41
2023-02-05T11:03:23.086Z,98515.25
2023-02-05T11:04:38.895Z,98515.34
2023-02-05T11:05:41.938Z,98514.06
2023-02-05T11:06:46.728Z,98510.06
2023-02-05T11:07:49.537Z,98510.91
2023-02-05T11:08:51.890Z,98510.56
2023-02-05T11:09:53.936Z,98509.72
2023-02-05T11:10:55.752Z,98512.09
2023-02-05T11:11:59.289Z,98507.41
2023-02-05T11:13:16.025Z,98507.88
2023-02-05T11:14:22.399Z,98497.16
2023-02-05T11:15:29.128Z,98507.13
2023-02-05T11:16:42.207Z,98495.97
2023-02-05T11:17:44.617Z,98503.91
2023-02-05T11:18:54.939Z,98502.13
2023-02-05T11:19:59.434Z,98504.63
2023-02-05T11:21:02.634Z,98493.25
2023-02-05T11:22:05.600Z,98494.50
2023-02-05T11:23:21.564Z,98493.56
2023-02-05T11:24:25.572Z,98493.06
2023-02-05T11:25:31.446Z,98492.22
2023-02-05T11:26:33.547Z,98494.69
2023-02-05T11:27:35.796Z,98503.31
2023-02-05T11:28:40.227Z,98504.47
2023-02-05T11:29:42.284Z,98487.63
2023-02-05T11:30:52.405Z,98489.34
2023-02-05T11:31:54.608Z,98492.03
2023-02-05T11:32:56.815Z,98488.75
2023-02-05T11:34:07.662Z,98485.59
2023-02-05T11:35:17.741Z,98485.84
2023-02-05T11:36:23.221Z,98483.19
2023-02-05T11:37:25.122Z,98489.81
2023-02-05T11:38:31.595Z,98484.97
2023-02-05T11:39:39.315Z,98480.91
2023-02-05T11:40:41.264Z,98479.00
2023-02-05T11:41:49.195Z,98476.25
2023-02-05T11:42:57.139Z,98486.59
2023-02-05T11:44:00.732Z,98484.00
2023-02-05T11:45:03.032Z,98488.84
2023-02-05T11:46:07.613Z,98490.34
2023-02-05T11:47:09.754Z,98475.50
2023-02-05T11:48:29.556Z,98484.97
2023-02-05T11:49:39.160Z,98482.44
2023-02-05T11:50:44.574Z,98479.84
2023-02-05T11:51:47.742Z,98479.91
2023-02-05T11:52:50.930Z,98466.81
2023-02-05T11:53:55.827Z,98478.25
2023-02-05T11:54:57.933Z,98481.16
2023-02-05T11:56:01.811Z,98478.88
2023-02-05T11:57:08.882Z,98475.34
2023-02-05T11:58:34.940Z,98469.78
2023-02-05T11:59:39.772Z,98467.59
2023-02-05T12:00:50.893Z,98466.91
2023-02-05T12:01:52.899Z,98468.69
2023-02-05T12:03:02.721Z,98467.75
2023-02-05T12:04:16.937Z,98459.00
2023-02-05T12:05:20.269Z,98457.06
2023-02-05T12:06:29.525Z,98455.47
2023-02-05T12:07:36.822Z,98454.47
2023-02-05T12:08:44.938Z,98448.63
2023-02-05T12:09:48.658Z,98454.22
2023-02-05T12:11:06.038Z,98457.63
2023-02-05T12:12:11.640Z,98445.09
2023-02-05T12:13:25.156Z,98445.22
2023-02-05T12:14:27.359Z,98441.00
2023-02-05T12:15:40.469Z,98434.97
2023-02-05T12:16:46.861Z,98435.81
2023-02-05T12:17:59.326Z,98436.63
2023-02-05T12:19:20.768Z,98434.28
2023-02-05T12:20:30.940Z,98436.88
2023-02-05T12:21:52.255Z,98435.81
2023-02-05T12:23:12.782Z,98429.22
2023-02-05T12:24:33.188Z,98425.56
2023-02-05T12:25:55.274Z,98417.78
2023-02-05T12:27:09.451Z,98427.47
2023-02-05T12:28:21.173Z,98420.38
2023-02-05T12:29:23.087Z,98422.31
2023-02-05T12:30:34.649Z,98413.28
2023-02-05T12:31:46.062Z,98418.59
2023-02-05T12:32:59.247Z,98416.00
2023-02-05T12:34:04.232Z,98418.59
2023-02-05T12:35:15.394Z,98419.22
2023-02-05T12:36:23.288Z,98423.72